Time;durP1;ratioP1;P1;durP2;ratioP2;P2;SDS_P1;SDS_P2;PMS_P1;PMS_P2;Temp;Humidity;BMP_temperature;BMP_pressure;BME280_temperature;BME280_humidity;BME280_pressure;Samples;Min_cycle;Max_cycle;Signal;HPM_P1;HPM_P2
2021/05/30 00:00:04;;;;;;;1.98;1.88;;;;;;;;;;5055093;28;20167;-42
2021/05/30 00:02:30;;;;;;;2.15;2.03;;;;;;;;;;5054156;28;20214;-42
2021/05/30 00:04:56;;;;;;;2.30;2.10;;;;;;;;;;5054786;28;20250;-42
2021/05/30 00:07:23;;;;;;;1.92;1.83;;;;;;;;;;5038872;28;20367;-42
2021/05/30 00:09:49;;;;;;;2.00;1.90;;;;;;;;;;5046670;28;20478;-42
2021/05/30 00:12:15;;;;;;;1.88;1.77;;;;;;;;;;5054434;28;20206;-42
2021/05/30 00:14:41;;;;;;;1.90;1.80;;;;;;;;;;5054104;28;20453;-42
2021/05/30 00:17:07;;;;;;;1.80;1.70;;;;;;;;;;5055092;28;20273;-42
2021/05/30 00:19:33;;;;;;;1.98;1.88;;;;;;;;;;5054840;28;20179;-42
2021/05/30 00:21:59;;;;;;;1.88;1.77;;;;;;;;;;5052661;28;20171;-42
2021/05/30 00:24:25;;;;;;;2.40;1.70;;;;;;;;;;5054569;28;20198;-42
2021/05/30 00:26:51;;;;;;;1.88;1.77;;;;;;;;;;5054176;28;20249;-42
2021/05/30 00:29:17;;;;;;;1.85;1.75;;;;;;;;;;5037065;28;20164;-42
2021/05/30 00:31:43;;;;;;;1.77;1.67;;;;;;;;;;5054285;28;20178;-42
2021/05/30 00:34:09;;;;;;;1.88;1.77;;;;;;;;;;5054814;28;20483;-42
2021/05/30 00:36:35;;;;;;;1.90;1.80;;;;;;;;;;5053804;28;20182;-42
2021/05/30 00:39:01;;;;;;;1.73;1.63;;;;;;;;;;5044817;28;20186;-42
2021/05/30 00:41:27;;;;;;;1.75;1.65;;;;;;;;;;5035377;28;20498;-42
2021/05/30 00:43:54;;;;;;;2.00;1.90;;;;;;;;;;5034077;28;20251;-42
2021/05/30 00:46:20;;;;;;;1.55;1.45;;;;;;;;;;5052027;28;20234;-42
2021/05/30 00:48:46;;;;;;;2.08;1.80;;;;;;;;;;5054187;28;20210;-42
2021/05/30 00:51:12;;;;;;;2.53;1.90;;;;;;;;;;5053976;28;20211;-42
2021/05/30 00:53:38;;;;;;;2.00;1.88;;;;;;;;;;5054390;28;20601;-42
2021/05/30 00:56:08;;;;;;;2.03;1.90;;;;;;;;;;5052968;28;20199;-42
2021/05/30 00:58:34;;;;;;;1.80;1.70;;;;;;;;;;5041889;28;20183;-42
2021/05/30 01:01:01;;;;;;;2.50;2.30;;;;;;;;;;5053245;28;20585;-42
2021/05/30 01:03:27;;;;;;;2.10;2.00;;;;;;;;;;5054526;28;20178;-42
2021/05/30 01:05:53;;;;;;;2.30;2.10;;;;;;;;;;5054364;28;20175;-42
2021/05/30 01:08:26;;;;;;;2.00;1.90;;;;;;;;;;5053875;28;20175;-42
2021/05/30 01:10:53;;;;;;;2.13;1.98;;;;;;;;;;5052738;28;20193;-42
2021/05/30 01:13:20;;;;;;;1.83;1.73;;;;;;;;;;5053693;28;20187;-42
2021/05/30 01:15:47;;;;;;;2.10;1.90;;;;;;;;;;5053762;28;20202;-42
2021/05/30 01:18:15;;;;;;;2.10;2.00;;;;;;;;;;5054118;28;20721;-42
2021/05/30 01:20:41;;;;;;;2.10;2.00;;;;;;;;;;5053405;28;20190;-42
2021/05/30 01:23:08;;;;;;;1.73;1.63;;;;;;;;;;5054008;28;20183;-42
2021/05/30 01:25:34;;;;;;;1.85;1.75;;;;;;;;;;5053963;28;20266;-42
2021/05/30 01:28:00;;;;;;;2.33;1.75;;;;;;;;;;5050588;28;20290;-42
2021/05/30 01:30:26;;;;;;;1.80;1.70;;;;;;;;;;5054000;28;20170;-42
2021/05/30 01:32:52;;;;;;;1.88;1.77;;;;;;;;;;5053766;28;20176;-42
2021/05/30 01:35:19;;;;;;;1.80;1.70;;;;;;;;;;5053947;28;20267;-42
2021/05/30 01:37:45;;;;;;;1.98;1.77;;;;;;;;;;5053658;28;20284;-42
2021/05/30 01:40:11;;;;;;;1.80;1.70;;;;;;;;;;5053711;28;20313;-42
2021/05/30 01:42:37;;;;;;;1.80;1.70;;;;;;;;;;5053693;28;20530;-42
2021/05/30 01:45:03;;;;;;;2.00;1.90;;;;;;;;;;5034326;28;20195;-42
2021/05/30 01:47:29;;;;;;;2.15;2.03;;;;;;;;;;5040622;28;20199;-42
2021/05/30 01:49:55;;;;;;;1.83;1.73;;;;;;;;;;5053991;28;20205;-42
2021/05/30 01:52:21;;;;;;;2.13;1.50;;;;;;;;;;5053381;28;20167;-42
2021/05/30 01:54:50;;;;;;;1.92;1.83;;;;;;;;;;5053674;28;20176;-42
2021/05/30 01:57:16;;;;;;;1.65;1.50;;;;;;;;;;5056905;28;20309;-42
2021/05/30 01:59:45;;;;;;;2.33;2.13;;;;;;;;;;5056349;28;20233;-42
2021/05/30 02:02:11;;;;;;;1.92;1.83;;;;;;;;;;5056596;28;20191;-42
2021/05/30 02:04:41;;;;;;;1.80;1.70;;;;;;;;;;5046488;28;20630;-42
2021/05/30 02:07:08;;;;;;;1.77;1.67;;;;;;;;;;5036995;28;20199;-42
2021/05/30 02:09:36;;;;;;;1.75;1.65;;;;;;;;;;5055217;28;20266;-42
2021/05/30 02:12:02;;;;;;;2.25;1.60;;;;;;;;;;5055666;28;20190;-43
2021/05/30 02:14:28;;;;;;;2.08;1.98;;;;;;;;;;5047061;28;20175;-42
2021/05/30 02:16:54;;;;;;;1.80;1.70;;;;;;;;;;5051292;28;20275;-42
2021/05/30 02:19:20;;;;;;;1.58;1.48;;;;;;;;;;5056515;28;20183;-42
2021/05/30 02:21:50;;;;;;;1.70;1.58;;;;;;;;;;5056171;28;20557;-42
2021/05/30 02:24:17;;;;;;;1.80;1.70;;;;;;;;;;5057144;28;20735;-42
2021/05/30 02:26:43;;;;;;;2.00;1.90;;;;;;;;;;5056378;28;20241;-42
2021/05/30 02:29:10;;;;;;;1.50;1.40;;;;;;;;;;5056604;28;20209;-42
2021/05/30 02:31:36;;;;;;;1.67;1.58;;;;;;;;;;5056077;28;20202;-42
2021/05/30 02:34:03;;;;;;;1.48;1.38;;;;;;;;;;5056809;28;20172;-42
2021/05/30 02:36:29;;;;;;;1.60;1.50;;;;;;;;;;5043573;28;20529;-42
2021/05/30 02:38:56;;;;;;;1.80;1.70;;;;;;;;;;5056481;28;20262;-42
2021/05/30 02:41:23;;;;;;;1.60;1.50;;;;;;;;;;5055512;28;20186;-42
2021/05/30 02:43:49;;;;;;;1.90;1.80;;;;;;;;;;5056771;28;20221;-42
2021/05/30 02:46:16;;;;;;;1.63;1.52;;;;;;;;;;5055795;28;20195;-42
2021/05/30 02:48:42;;;;;;;1.48;1.38;;;;;;;;;;5047484;28;20172;-42
2021/05/30 02:51:08;;;;;;;1.70;1.60;;;;;;;;;;5050606;28;20183;-42
2021/05/30 02:53:34;;;;;;;1.60;1.50;;;;;;;;;;5055411;28;20198;-42
2021/05/30 02:56:01;;;;;;;1.92;1.80;;;;;;;;;;5056603;28;20186;-42
2021/05/30 02:58:29;;;;;;;1.95;1.73;;;;;;;;;;5056296;28;20175;-42
2021/05/30 03:00:55;;;;;;;1.90;1.80;;;;;;;;;;5055954;28;20191;-42
2021/05/30 03:03:21;;;;;;;1.65;1.55;;;;;;;;;;5055997;28;20171;-42
2021/05/30 03:05:47;;;;;;;1.83;1.73;;;;;;;;;;5055977;28;20259;-42
2021/05/30 03:08:13;;;;;;;1.80;1.70;;;;;;;;;;5055386;28;20285;-42
2021/05/30 03:10:39;;;;;;;1.70;1.60;;;;;;;;;;5055284;28;20179;-42
2021/05/30 03:13:05;;;;;;;1.70;1.60;;;;;;;;;;5056167;28;20179;-42
2021/05/30 03:15:31;;;;;;;1.85;1.70;;;;;;;;;;5056225;28;20182;-42
2021/05/30 03:17:57;;;;;;;1.77;1.67;;;;;;;;;;5055808;28;20538;-42
2021/05/30 03:20:23;;;;;;;1.70;1.60;;;;;;;;;;5055469;28;20187;-42
2021/05/30 03:22:49;;;;;;;1.77;1.67;;;;;;;;;;5048198;28;20184;-42
2021/05/30 03:25:15;;;;;;;1.70;1.60;;;;;;;;;;5048350;28;20198;-42
2021/05/30 03:27:41;;;;;;;1.50;1.40;;;;;;;;;;5055602;28;20203;-42
2021/05/30 03:30:09;;;;;;;1.58;1.48;;;;;;;;;;5055865;28;20272;-42
2021/05/30 03:32:35;;;;;;;1.75;1.65;;;;;;;;;;5055017;28;20187;-42
2021/05/30 03:35:02;;;;;;;1.60;1.50;;;;;;;;;;5055235;28;20573;-42
2021/05/30 03:37:28;;;;;;;1.80;1.70;;;;;;;;;;5055175;28;20167;-42
2021/05/30 03:39:58;;;;;;;1.55;1.45;;;;;;;;;;5055407;28;20262;-42
2021/05/30 03:42:28;;;;;;;1.70;1.60;;;;;;;;;;5055522;28;20424;-42
2021/05/30 03:44:57;;;;;;;1.55;1.45;;;;;;;;;;5055684;28;20175;-42
2021/05/30 03:47:23;;;;;;;1.83;1.73;;;;;;;;;;5055701;28;20199;-42
2021/05/30 03:49:49;;;;;;;1.88;1.77;;;;;;;;;;5053900;28;20175;-42
2021/05/30 03:52:15;;;;;;;1.65;1.55;;;;;;;;;;5055079;28;20194;-42
2021/05/30 03:54:42;;;;;;;1.90;1.80;;;;;;;;;;5055723;28;20168;-42
2021/05/30 03:57:09;;;;;;;1.88;1.77;;;;;;;;;;5053313;28;20187;-42
2021/05/30 03:59:35;;;;;;;1.92;1.83;;;;;;;;;;5047139;28;20182;-42
2021/05/30 04:02:01;;;;;;;2.00;1.90;;;;;;;;;;5053379;28;20262;-42
2021/05/30 04:04:27;;;;;;;1.85;1.75;;;;;;;;;;5055050;28;20490;-42
2021/05/30 04:06:53;;;;;;;1.73;1.63;;;;;;;;;;5055478;28;20198;-42
2021/05/30 04:09:19;;;;;;;1.83;1.73;;;;;;;;;;5054425;28;20489;-42
2021/05/30 04:11:45;;;;;;;1.90;1.80;;;;;;;;;;5054559;28;20236;-42
2021/05/30 04:14:11;;;;;;;2.03;1.88;;;;;;;;;;5054965;28;20229;-42
2021/05/30 04:16:37;;;;;;;1.85;1.75;;;;;;;;;;5054503;28;20191;-42
2021/05/30 04:19:03;;;;;;;1.83;1.73;;;;;;;;;;5053747;28;20199;-42
2021/05/30 04:21:29;;;;;;;2.03;1.92;;;;;;;;;;5054108;28;20554;-42
2021/05/30 04:23:55;;;;;;;2.08;1.98;;;;;;;;;;5054084;28;20187;-42
2021/05/30 04:26:21;;;;;;;1.95;1.85;;;;;;;;;;5045029;28;20234;-42
2021/05/30 04:28:47;;;;;;;2.47;2.25;;;;;;;;;;5051232;28;20221;-42
2021/05/30 04:31:13;;;;;;;2.35;2.15;;;;;;;;;;5054066;28;20190;-42
2021/05/30 04:33:39;;;;;;;2.00;1.90;;;;;;;;;;5054307;28;20187;-42
2021/05/30 04:36:05;;;;;;;2.30;2.13;;;;;;;;;;5054444;28;20209;-42
2021/05/30 04:38:31;;;;;;;2.45;2.25;;;;;;;;;;5048926;28;20801;-42
2021/05/30 04:41:00;;;;;;;2.38;2.17;;;;;;;;;;5049510;28;20194;-42
2021/05/30 04:43:26;;;;;;;3.25;2.50;;;;;;;;;;5054325;28;20174;-42
2021/05/30 04:45:52;;;;;;;2.45;2.25;;;;;;;;;;5053850;28;20179;-42
2021/05/30 04:48:18;;;;;;;3.05;2.80;;;;;;;;;;5054432;28;20213;-42
2021/05/30 04:51:05;;;;;;;2.75;2.55;;;;;;;;;;5053920;28;20179;-42
2021/05/30 04:53:30;;;;;;;2.97;2.70;;;;;;;;;;5054453;28;20294;-42
2021/05/30 04:55:56;;;;;;;2.60;2.40;;;;;;;;;;5053886;28;20194;-42
2021/05/30 04:58:22;;;;;;;2.90;2.70;;;;;;;;;;5036851;28;20179;-42
2021/05/30 05:00:48;;;;;;;3.00;2.80;;;;;;;;;;5051447;28;20202;-43
2021/05/30 05:03:14;;;;;;;6.47;3.55;;;;;;;;;;5052733;28;20179;-42
2021/05/30 05:05:40;;;;;;;4.60;2.95;;;;;;;;;;5054279;28;20206;-42
2021/05/30 05:08:06;;;;;;;3.90;3.25;;;;;;;;;;5054112;28;20217;-42
2021/05/30 05:10:32;;;;;;;3.20;2.90;;;;;;;;;;5053233;28;20250;-42
2021/05/30 05:12:58;;;;;;;7.00;3.30;;;;;;;;;;5053747;28;20254;-42
2021/05/30 05:15:24;;;;;;;3.50;3.20;;;;;;;;;;5053972;28;20270;-42
2021/05/30 05:17:50;;;;;;;7.72;3.67;;;;;;;;;;5054360;28;20167;-42
2021/05/30 05:20:16;;;;;;;5.43;3.40;;;;;;;;;;5053968;28;20461;-42
2021/05/30 05:22:42;;;;;;;8.25;3.85;;;;;;;;;;5037695;28;20188;-42
2021/05/30 05:25:08;;;;;;;3.97;3.60;;;;;;;;;;5034244;28;20259;-42
2021/05/30 05:27:34;;;;;;;8.40;3.88;;;;;;;;;;5042097;28;20199;-42
2021/05/30 05:30:00;;;;;;;4.43;3.90;;;;;;;;;;5053478;28;20190;-42
2021/05/30 05:32:26;;;;;;;4.53;3.67;;;;;;;;;;5056526;28;20225;-42
2021/05/30 05:34:52;;;;;;;5.03;3.50;;;;;;;;;;5057396;28;20171;-42
2021/05/30 05:37:18;;;;;;;4.10;3.58;;;;;;;;;;5057921;28;20240;-42
2021/05/30 05:39:44;;;;;;;4.40;3.83;;;;;;;;;;5057483;28;20179;-42
2021/05/30 05:42:10;;;;;;;4.25;3.58;;;;;;;;;;5044208;28;20188;-42
2021/05/30 05:44:36;;;;;;;4.78;4.03;;;;;;;;;;5039263;28;20180;-42
2021/05/30 05:47:04;;;;;;;4.15;3.42;;;;;;;;;;5057826;28;20202;-42
2021/05/30 05:49:33;;;;;;;7.03;4.28;;;;;;;;;;5054017;28;20176;-42
2021/05/30 05:51:59;;;;;;;4.70;3.70;;;;;;;;;;5056360;28;20187;-42
2021/05/30 05:54:25;;;;;;;4.80;4.40;;;;;;;;;;5056640;28;20222;-42
2021/05/30 05:56:51;;;;;;;5.35;3.92;;;;;;;;;;5056388;28;20202;-42
2021/05/30 05:59:17;;;;;;;4.43;4.03;;;;;;;;;;5057341;28;20183;-42
2021/05/30 06:01:42;;;;;;;5.93;4.20;;;;;;;;;;5056570;28;20199;-42
2021/05/30 06:04:08;;;;;;;5.10;4.03;;;;;;;;;;5046244;28;20714;-42
2021/05/30 06:06:34;;;;;;;6.22;4.20;;;;;;;;;;5042402;28;20296;-42
2021/05/30 06:09:00;;;;;;;4.03;3.63;;;;;;;;;;5056556;28;20258;-42
2021/05/30 06:11:26;;;;;;;4.68;4.18;;;;;;;;;;5056671;28;20217;-42
2021/05/30 06:13:52;;;;;;;4.47;4.07;;;;;;;;;;5056050;28;20175;-42
2021/05/30 06:16:18;;;;;;;4.65;4.10;;;;;;;;;;5057182;28;20202;-42
2021/05/30 06:18:45;;;;;;;5.60;4.47;;;;;;;;;;5056158;28;20182;-42
2021/05/30 06:21:11;;;;;;;4.82;4.32;;;;;;;;;;5056051;28;20478;-42
2021/05/30 06:23:38;;;;;;;6.53;4.20;;;;;;;;;;5056991;28;20222;-42
2021/05/30 06:26:09;;;;;;;5.05;4.55;;;;;;;;;;5052328;28;20542;-42
2021/05/30 06:28:35;;;;;;;4.95;4.45;;;;;;;;;;5050001;28;20492;-42
2021/05/30 06:31:01;;;;;;;4.75;4.28;;;;;;;;;;5054215;28;20171;-42
2021/05/30 06:33:27;;;;;;;6.03;4.55;;;;;;;;;;5049034;28;20572;-42
2021/05/30 06:35:53;;;;;;;4.95;4.47;;;;;;;;;;5047057;28;20179;-42
2021/05/30 06:38:19;;;;;;;4.60;4.18;;;;;;;;;;5056421;28;20244;-42
2021/05/30 06:40:45;;;;;;;6.03;4.45;;;;;;;;;;5056137;28;20523;-42
2021/05/30 06:43:12;;;;;;;5.38;4.43;;;;;;;;;;5056160;28;20543;-42
2021/05/30 06:45:39;;;;;;;6.30;4.50;;;;;;;;;;5048727;28;20179;-42
2021/05/30 06:48:06;;;;;;;4.22;3.80;;;;;;;;;;5050770;28;20643;-42
2021/05/30 06:50:32;;;;;;;5.82;4.47;;;;;;;;;;5055747;28;20176;-42
2021/05/30 06:52:58;;;;;;;5.82;4.63;;;;;;;;;;5053402;28;20585;-42
2021/05/30 06:55:24;;;;;;;5.25;4.20;;;;;;;;;;5039706;28;20583;-42
2021/05/30 06:57:51;;;;;;;5.00;4.20;;;;;;;;;;5053347;28;20617;-42
2021/05/30 07:00:18;;;;;;;4.43;4.00;;;;;;;;;;5053649;28;20270;-42
2021/05/30 07:02:44;;;;;;;4.53;3.83;;;;;;;;;;5054995;28;20210;-42
2021/05/30 07:05:10;;;;;;;3.95;3.65;;;;;;;;;;5045568;28;20185;-42
2021/05/30 07:07:36;;;;;;;3.90;3.60;;;;;;;;;;5042896;28;20230;-42
2021/05/30 07:10:03;;;;;;;4.57;3.80;;;;;;;;;;5056377;28;20507;-42
2021/05/30 07:12:29;;;;;;;5.03;4.07;;;;;;;;;;5049833;28;20226;-42
2021/05/30 07:14:59;;;;;;;4.22;3.83;;;;;;;;;;5048252;28;20183;-41
2021/05/30 07:17:25;;;;;;;4.15;3.40;;;;;;;;;;5055594;28;20176;-42
2021/05/30 07:19:52;;;;;;;4.85;3.80;;;;;;;;;;5037146;28;20187;-42
2021/05/30 07:22:18;;;;;;;3.78;3.25;;;;;;;;;;5052694;28;20242;-42
2021/05/30 07:24:44;;;;;;;5.80;3.40;;;;;;;;;;5055955;28;20540;-42
2021/05/30 07:27:11;;;;;;;4.43;3.38;;;;;;;;;;5054451;28;20199;-42
2021/05/30 07:29:37;;;;;;;4.28;3.22;;;;;;;;;;5055779;28;20171;-42
2021/05/30 07:32:03;;;;;;;3.78;3.13;;;;;;;;;;5054701;28;20175;-42
2021/05/30 07:34:29;;;;;;;3.47;2.97;;;;;;;;;;5050567;28;20282;-42
2021/05/30 07:36:55;;;;;;;3.15;2.90;;;;;;;;;;5052862;28;20195;-42
2021/05/30 07:39:21;;;;;;;4.38;3.35;;;;;;;;;;5055875;28;20175;-42
2021/05/30 07:41:47;;;;;;;5.57;2.90;;;;;;;;;;5055243;28;20171;-42
2021/05/30 07:44:15;;;;;;;3.42;3.13;;;;;;;;;;5055184;28;20179;-42
2021/05/30 07:46:41;;;;;;;3.55;3.25;;;;;;;;;;5055098;28;20191;-42
2021/05/30 07:49:08;;;;;;;3.38;2.72;;;;;;;;;;5051215;28;20270;-41
2021/05/30 07:51:34;;;;;;;3.10;2.80;;;;;;;;;;5043066;28;20206;-41
2021/05/30 07:54:00;;;;;;;3.35;2.80;;;;;;;;;;5054677;28;20211;-42
2021/05/30 07:56:26;;;;;;;3.17;2.60;;;;;;;;;;5054800;28;20198;-42
2021/05/30 07:58:53;;;;;;;4.00;2.63;;;;;;;;;;5054602;28;20190;-42
2021/05/30 08:01:19;;;;;;;3.63;2.60;;;;;;;;;;5044000;28;20210;-42
2021/05/30 08:03:45;;;;;;;3.38;2.75;;;;;;;;;;5045790;28;20185;-42
2021/05/30 08:06:11;;;;;;;3.47;2.63;;;;;;;;;;5047281;28;20187;-43
2021/05/30 08:08:37;;;;;;;4.18;2.78;;;;;;;;;;5054780;28;20450;-42
2021/05/30 08:11:03;;;;;;;4.10;2.60;;;;;;;;;;5054659;28;20167;-42
2021/05/30 08:13:29;;;;;;;3.00;2.70;;;;;;;;;;5054942;28;20234;-42
2021/05/30 08:15:55;;;;;;;3.83;2.83;;;;;;;;;;5054553;28;20214;-42
2021/05/30 08:18:21;;;;;;;3.30;2.45;;;;;;;;;;5053564;28;20202;-42
2021/05/30 08:20:47;;;;;;;3.03;2.83;;;;;;;;;;5040412;28;20653;-42
2021/05/30 08:23:13;;;;;;;3.80;2.95;;;;;;;;;;5049188;28;20191;-43
2021/05/30 08:25:39;;;;;;;2.90;2.70;;;;;;;;;;5054518;28;20245;-42
2021/05/30 08:28:09;;;;;;;3.58;2.92;;;;;;;;;;5039841;28;20529;-42
2021/05/30 08:30:35;;;;;;;2.90;2.70;;;;;;;;;;5053424;28;20175;-42
2021/05/30 08:33:01;;;;;;;3.00;2.65;;;;;;;;;;5054167;28;20233;-42
2021/05/30 08:35:27;;;;;;;5.65;4.25;;;;;;;;;;5053144;28;20187;-42
2021/05/30 08:37:53;;;;;;;8.10;5.25;;;;;;;;;;5051544;28;20222;-42
2021/05/30 08:40:19;;;;;;;14.65;10.10;;;;;;;;;;5049115;28;20215;-42
2021/05/30 08:42:46;;;;;;;7.80;5.88;;;;;;;;;;5049857;28;20500;-42
2021/05/30 08:45:14;;;;;;;10.25;6.38;;;;;;;;;;5053709;28;20183;-42
2021/05/30 08:47:40;;;;;;;9.20;5.43;;;;;;;;;;5041980;28;20206;-42
2021/05/30 08:50:06;;;;;;;6.40;5.22;;;;;;;;;;5051075;28;20229;-42
2021/05/30 08:52:33;;;;;;;6.45;5.13;;;;;;;;;;5052460;28;20225;-42
2021/05/30 08:54:59;;;;;;;6.00;4.70;;;;;;;;;;5041121;28;20187;-42
2021/05/30 08:57:25;;;;;;;6.78;4.80;;;;;;;;;;5054366;28;20191;-42
2021/05/30 08:59:53;;;;;;;4.80;4.05;;;;;;;;;;5054224;28;20262;-42
2021/05/30 09:02:19;;;;;;;10.20;4.82;;;;;;;;;;5053800;28;20188;-42
2021/05/30 09:04:50;;;;;;;6.55;4.63;;;;;;;;;;5053023;28;20394;-42
2021/05/30 09:07:16;;;;;;;12.05;5.78;;;;;;;;;;5058135;28;20204;-42
2021/05/30 09:09:43;;;;;;;26.90;9.60;;;;;;;;;;5042098;28;20568;-42
2021/05/30 09:12:25;;;;;;;21.52;7.78;;;;;;;;;;5052158;28;20294;-42
2021/05/30 09:14:53;;;;;;;22.33;7.20;;;;;;;;;;5041797;28;20306;-42
2021/05/30 09:17:23;;;;;;;21.15;7.72;;;;;;;;;;5058179;28;20174;-42
2021/05/30 09:19:50;;;;;;;24.67;8.63;;;;;;;;;;5057758;28;20183;-41
2021/05/30 09:22:17;;;;;;;26.50;8.77;;;;;;;;;;5057537;28;20260;-42
2021/05/30 09:24:58;;;;;;;21.15;8.13;;;;;;;;;;5057866;28;20171;-42
2021/05/30 09:27:25;;;;;;;24.33;8.35;;;;;;;;;;5051045;28;20575;-42
2021/05/30 09:30:10;;;;;;;17.23;7.85;;;;;;;;;;5043467;28;20175;-42
2021/05/30 09:32:54;;;;;;;18.02;8.05;;;;;;;;;;5052216;28;20172;-42
2021/05/30 09:35:23;;;;;;;16.88;7.15;;;;;;;;;;5057249;28;20175;-42
2021/05/30 09:37:57;;;;;;;17.23;7.00;;;;;;;;;;5051555;28;20175;-42
2021/05/30 09:40:33;;;;;;;13.30;5.90;;;;;;;;;;5036369;28;20623;-41
2021/05/30 09:43:03;;;;;;;16.40;7.15;;;;;;;;;;5057123;28;20183;-41
2021/05/30 09:45:29;;;;;;;82.47;37.65;;;;;;;;;;5056498;28;20198;-42
2021/05/30 09:47:55;;;;;;;393.83;197.55;;;;;;;;;;5056034;28;20198;-42
2021/05/30 09:50:21;;;;;;;403.20;202.75;;;;;;;;;;5050773;28;20608;-42
2021/05/30 09:52:48;;;;;;;294.42;136.75;;;;;;;;;;5056879;28;20186;-42
2021/05/30 09:55:14;;;;;;;82.57;39.65;;;;;;;;;;5057491;28;20167;-41
2021/05/30 09:57:40;;;;;;;38.35;18.73;;;;;;;;;;5057569;28;20183;-42
2021/05/30 10:00:07;;;;;;;16.40;8.50;;;;;;;;;;5052839;28;20176;-41
2021/05/30 10:02:33;;;;;;;11.52;5.57;;;;;;;;;;5055637;28;20187;-42
2021/05/30 10:05:00;;;;;;;8.10;4.40;;;;;;;;;;5053139;28;20183;-42
2021/05/30 10:07:26;;;;;;;4.55;2.65;;;;;;;;;;5037514;28;20200;-42
2021/05/30 10:09:53;;;;;;;3.03;2.38;;;;;;;;;;5048170;28;20550;-42
2021/05/30 10:12:19;;;;;;;5.47;2.38;;;;;;;;;;5048723;28;20179;-42
2021/05/30 10:14:45;;;;;;;3.28;1.92;;;;;;;;;;5050296;28;20262;-42
2021/05/30 10:17:12;;;;;;;2.15;1.55;;;;;;;;;;5056258;28;20182;-42
2021/05/30 10:19:41;;;;;;;2.30;1.98;;;;;;;;;;5054059;28;20191;-42
2021/05/30 10:22:07;;;;;;;4.28;2.10;;;;;;;;;;5054912;28;20186;-42
2021/05/30 10:24:39;;;;;;;2.95;1.95;;;;;;;;;;5056043;28;20184;-42
2021/05/30 10:27:25;;;;;;;2.65;1.80;;;;;;;;;;5055649;28;20710;-42
2021/05/30 10:30:10;;;;;;;3.47;1.73;;;;;;;;;;5054519;28;20172;-42
2021/05/30 10:32:37;;;;;;;4.97;1.92;;;;;;;;;;5047671;28;20562;-41
2021/05/30 10:35:12;;;;;;;2.70;1.70;;;;;;;;;;5055822;28;20568;-42
2021/05/30 10:37:51;;;;;;;2.80;1.58;;;;;;;;;;5056458;28;20185;-42
2021/05/30 10:40:23;;;;;;;3.75;1.60;;;;;;;;;;5053139;28;20191;-42
2021/05/30 10:43:14;;;;;;;7.45;2.50;;;;;;;;;;5046246;28;20174;-42
2021/05/30 10:45:43;;;;;;;13.65;3.50;;;;;;;;;;5056537;28;20206;-42
2021/05/30 10:48:10;;;;;;;25.38;7.00;;;;;;;;;;5056297;28;20219;-42
2021/05/30 10:50:48;;;;;;;43.42;9.77;;;;;;;;;;5056409;28;20167;-42
2021/05/30 10:53:33;;;;;;;36.40;9.43;;;;;;;;;;5056751;28;20159;-41
2021/05/30 10:56:17;;;;;;;34.80;8.57;;;;;;;;;;5045209;28;20755;-41
2021/05/30 10:58:44;;;;;;;43.03;8.13;;;;;;;;;;5050975;28;20178;-43
2021/05/30 11:01:29;;;;;;;30.83;8.10;;;;;;;;;;5055238;28;20178;-42
2021/05/30 11:03:55;;;;;;;48.88;10.68;;;;;;;;;;5056147;28;20503;-42
2021/05/30 11:06:41;;;;;;;39.22;9.32;;;;;;;;;;5053760;28;20262;-42
2021/05/30 11:09:07;;;;;;;34.42;8.23;;;;;;;;;;5043099;28;20175;-42
2021/05/30 11:11:33;;;;;;;25.48;7.82;;;;;;;;;;5050766;28;20171;-41
2021/05/30 11:14:01;;;;;;;25.70;8.20;;;;;;;;;;5055266;28;20258;-42
2021/05/30 11:16:31;;;;;;;27.58;7.47;;;;;;;;;;5056117;28;20173;-41
2021/05/30 11:19:00;;;;;;;22.27;7.07;;;;;;;;;;5055959;28;20537;-41
2021/05/30 11:21:33;;;;;;;20.77;6.32;;;;;;;;;;5048842;28;20198;-41
2021/05/30 11:24:00;;;;;;;24.25;6.60;;;;;;;;;;5040439;28;20180;-42
2021/05/30 11:26:26;;;;;;;26.65;7.88;;;;;;;;;;5038446;28;20555;-41
2021/05/30 11:28:52;;;;;;;26.77;7.10;;;;;;;;;;5056244;28;20198;-41
2021/05/30 11:31:19;;;;;;;19.10;6.57;;;;;;;;;;5055281;28;20160;-42
2021/05/30 11:33:56;;;;;;;21.38;7.10;;;;;;;;;;5038494;28;20171;-42
2021/05/30 11:36:37;;;;;;;18.98;6.80;;;;;;;;;;5055390;28;20202;-42
2021/05/30 11:39:10;;;;;;;18.73;6.10;;;;;;;;;;5055918;28;20242;-41
2021/05/30 11:41:37;;;;;;;22.58;7.07;;;;;;;;;;5046953;28;20586;-42
2021/05/30 11:44:09;;;;;;;22.23;6.88;;;;;;;;;;5035850;28;20590;-42
2021/05/30 11:46:55;;;;;;;17.95;7.00;;;;;;;;;;5053373;28;20207;-42
2021/05/30 11:49:25;;;;;;;18.63;6.22;;;;;;;;;;5055091;28;20199;-41
2021/05/30 11:51:59;;;;;;;17.95;5.85;;;;;;;;;;5054993;28;20443;-42
2021/05/30 11:54:27;;;;;;;15.85;6.18;;;;;;;;;;5055360;28;20249;-41
2021/05/30 11:56:54;;;;;;;15.02;5.25;;;;;;;;;;5054813;28;20214;-42
2021/05/30 11:59:26;;;;;;;17.85;6.28;;;;;;;;;;5038011;28;20210;-42
2021/05/30 12:01:52;;;;;;;16.10;5.80;;;;;;;;;;5054122;28;20278;-41
2021/05/30 12:04:22;;;;;;;13.57;5.07;;;;;;;;;;5051913;28;20262;-42
2021/05/30 12:06:48;;;;;;;15.65;4.78;;;;;;;;;;5049605;28;20200;-42
2021/05/30 12:09:14;;;;;;;16.23;5.85;;;;;;;;;;5054663;28;20168;-42
2021/05/30 12:11:41;;;;;;;18.75;5.72;;;;;;;;;;5054380;28;20262;-42
2021/05/30 12:14:07;;;;;;;17.05;5.13;;;;;;;;;;5055093;28;20183;-42
2021/05/30 12:16:33;;;;;;;13.98;5.38;;;;;;;;;;5049136;28;20234;-42
2021/05/30 12:19:01;;;;;;;17.30;5.25;;;;;;;;;;5035288;28;20171;-42
2021/05/30 12:21:28;;;;;;;15.30;4.90;;;;;;;;;;5043686;28;20171;-42
2021/05/30 12:23:54;;;;;;;12.90;4.75;;;;;;;;;;5054679;28;20174;-42
2021/05/30 12:26:20;;;;;;;10.10;4.28;;;;;;;;;;5054893;28;20496;-42
2021/05/30 12:28:46;;;;;;;10.05;3.83;;;;;;;;;;5047295;28;20183;-42
2021/05/30 12:31:15;;;;;;;11.43;3.95;;;;;;;;;;5040683;28;20559;-42
2021/05/30 12:33:57;;;;;;;10.43;3.80;;;;;;;;;;5042457;28;20182;-42
2021/05/30 12:36:31;;;;;;;11.35;3.65;;;;;;;;;;5054436;28;20250;-42
2021/05/30 12:39:01;;;;;;;10.30;3.90;;;;;;;;;;5041672;28;20251;-42
2021/05/30 12:41:38;;;;;;;10.15;3.85;;;;;;;;;;5052791;28;20175;-42
2021/05/30 12:44:18;;;;;;;9.18;3.85;;;;;;;;;;5050035;28;20179;-42
2021/05/30 12:46:55;;;;;;;9.90;3.67;;;;;;;;;;5039541;28;20191;-42
2021/05/30 12:49:21;;;;;;;7.25;3.72;;;;;;;;;;5053816;28;20228;-42
2021/05/30 12:51:56;;;;;;;9.15;3.45;;;;;;;;;;5052952;28;20202;-42
2021/05/30 12:54:23;;;;;;;6.20;3.53;;;;;;;;;;5034591;28;20168;-42
2021/05/30 12:56:49;;;;;;;11.18;3.30;;;;;;;;;;5049007;28;20273;-42
2021/05/30 12:59:17;;;;;;;8.43;3.63;;;;;;;;;;5053414;28;20206;-42
2021/05/30 13:01:45;;;;;;;10.05;3.33;;;;;;;;;;5053492;28;20241;-42
2021/05/30 13:04:18;;;;;;;8.85;3.17;;;;;;;;;;5054236;28;20262;-42
2021/05/30 13:06:57;;;;;;;8.95;3.17;;;;;;;;;;5053993;28;20260;-42
2021/05/30 13:09:25;;;;;;;6.95;3.30;;;;;;;;;;5054259;28;20167;-42
2021/05/30 13:11:51;;;;;;;7.32;3.03;;;;;;;;;;5042906;28;20176;-42
2021/05/30 13:14:26;;;;;;;7.65;2.80;;;;;;;;;;5049624;28;20227;-42
2021/05/30 13:16:52;;;;;;;6.22;2.40;;;;;;;;;;5036797;28;20199;-42
2021/05/30 13:19:18;;;;;;;7.35;2.92;;;;;;;;;;5044235;28;20208;-42
2021/05/30 13:21:44;;;;;;;6.70;3.25;;;;;;;;;;5047497;28;20218;-42
2021/05/30 13:24:12;;;;;;;6.80;2.85;;;;;;;;;;5053944;28;20183;-42
2021/05/30 13:26:47;;;;;;;8.50;3.25;;;;;;;;;;5053309;28;20226;-42
2021/05/30 13:29:18;;;;;;;5.28;2.92;;;;;;;;;;5054413;28;20159;-42
2021/05/30 13:31:44;;;;;;;6.00;3.10;;;;;;;;;;5053303;28;20594;-42
2021/05/30 13:34:10;;;;;;;5.70;2.80;;;;;;;;;;5053992;28;20243;-42
2021/05/30 13:36:37;;;;;;;5.45;2.70;;;;;;;;;;5054083;28;20167;-42
2021/05/30 13:39:04;;;;;;;5.03;2.95;;;;;;;;;;5052997;28;20750;-42
2021/05/30 13:41:30;;;;;;;6.32;2.63;;;;;;;;;;5053610;28;20178;-42
2021/05/30 13:43:57;;;;;;;7.35;2.63;;;;;;;;;;5054136;28;20428;-42
2021/05/30 13:46:23;;;;;;;6.15;3.08;;;;;;;;;;5054029;28;20164;-42
2021/05/30 13:48:50;;;;;;;7.05;2.67;;;;;;;;;;5049448;28;20187;-41
2021/05/30 13:51:17;;;;;;;5.45;2.70;;;;;;;;;;5053141;28;20171;-41
2021/05/30 13:53:44;;;;;;;5.65;2.70;;;;;;;;;;5057323;28;20186;-41
2021/05/30 13:56:10;;;;;;;4.78;2.38;;;;;;;;;;5057687;28;20202;-42
2021/05/30 13:58:36;;;;;;;4.03;2.17;;;;;;;;;;5057766;28;20181;-42
2021/05/30 14:01:02;;;;;;;4.53;2.47;;;;;;;;;;5057125;28;20218;-41
2021/05/30 14:03:28;;;;;;;5.80;2.25;;;;;;;;;;5057084;28;20191;-41
2021/05/30 14:05:54;;;;;;;3.90;2.28;;;;;;;;;;5053844;28;20175;-42
2021/05/30 14:08:20;;;;;;;3.90;2.25;;;;;;;;;;5036563;28;20467;-42
2021/05/30 14:10:46;;;;;;;4.25;2.05;;;;;;;;;;5036675;28;20194;-41
2021/05/30 14:13:13;;;;;;;3.95;2.22;;;;;;;;;;5037478;28;20168;-42
2021/05/30 14:15:38;;;;;;;3.92;2.30;;;;;;;;;;5037408;28;20206;-42
2021/05/30 14:18:05;;;;;;;4.72;1.95;;;;;;;;;;5053785;28;20546;-41
2021/05/30 14:20:31;;;;;;;6.55;2.10;;;;;;;;;;5056594;28;20183;-41
2021/05/30 14:22:57;;;;;;;7.22;2.88;;;;;;;;;;5057053;28;20190;-42
2021/05/30 14:25:22;;;;;;;4.95;2.33;;;;;;;;;;5057249;28;20171;-41
2021/05/30 14:27:48;;;;;;;5.60;2.40;;;;;;;;;;5057036;28;20226;-42
2021/05/30 14:30:15;;;;;;;7.28;2.88;;;;;;;;;;5056706;28;20423;-41
2021/05/30 14:32:41;;;;;;;6.88;2.20;;;;;;;;;;5039445;28;20195;-41
2021/05/30 14:35:08;;;;;;;5.85;2.38;;;;;;;;;;5036665;28;20179;-42
2021/05/30 14:37:35;;;;;;;5.07;2.38;;;;;;;;;;5041198;28;20469;-42
2021/05/30 14:40:01;;;;;;;5.10;2.20;;;;;;;;;;5056811;28;20187;-42
2021/05/30 14:42:27;;;;;;;4.53;2.15;;;;;;;;;;5056257;28;20190;-41